Andoya, Andenes Andoya Airport (ENAN)

NameAndenes Andoya Airport
CityAndoya
CountryNorway
ICAOENAN
IATAANX
Altitude13 m
CoordinatesGoogle Map
Live Air TrafficLiveATC.net
METARENAN 101050Z 08013KT CAVOK 02/M03 Q1007
2018-12-10 10:50:00 Wind: East-Northeast (80°) 6.69 m/s - Visibility: > 10000 m - Weather: CAVOK - Temperature: 2 °C - Dew point: -3 °C - Humidity: 69.8% - Pressure: 1007 hPa

Sorry, no flights used the airport in this database.